Time;durP1;ratioP1;P1;durP2;ratioP2;P2;SDS_P1;SDS_P2;PMS_P1;PMS_P2;Temp;Humidity;BMP_temperature;BMP_pressure;BME280_temperature;BME280_humidity;BME280_pressure;Samples;Min_cycle;Max_cycle;Signal;HPM_P1;HPM_P2
2021/03/01 00:02:08;;;;;;;14.93;9.83;;;8.60;48.20;;;;;;5050808;28;20246;-39
2021/03/01 00:04:34;;;;;;;12.60;9.63;;;8.70;48.20;;;;;;5052123;28;20224;-39
2021/03/01 00:06:59;;;;;;;12.03;8.97;;;8.60;48.10;;;;;;5051271;28;20467;-39
2021/03/01 00:09:25;;;;;;;14.70;9.00;;;8.60;47.90;;;;;;5050427;28;20201;-39
2021/03/01 00:11:50;;;;;;;12.20;8.67;;;8.60;47.80;;;;;;5053576;28;20199;-39
2021/03/01 00:14:16;;;;;;;11.33;9.27;;;8.60;47.90;;;;;;5051402;28;20193;-39
2021/03/01 00:16:42;;;;;;;11.93;9.10;;;8.50;47.90;;;;;;5051594;28;20193;-40
2021/03/01 00:19:07;;;;;;;15.33;9.60;;;8.50;47.80;;;;;;5051138;28;20629;-39
2021/03/01 00:21:33;;;;;;;10.90;8.30;;;8.50;47.80;;;;;;5051586;28;20200;-40
2021/03/01 00:23:59;;;;;;;12.17;8.57;;;8.50;47.80;;;;;;5051746;28;20632;-39
2021/03/01 00:26:24;;;;;;;10.13;8.80;;;8.50;47.90;;;;;;5051467;28;20493;-40
2021/03/01 00:28:50;;;;;;;12.50;9.43;;;8.50;48.00;;;;;;5051773;28;20224;-39
2021/03/01 00:31:15;;;;;;;13.43;8.97;;;8.50;47.90;;;;;;5049789;28;20239;-40
2021/03/01 00:33:41;;;;;;;12.83;9.90;;;8.50;47.90;;;;;;5051964;28;20276;-39
2021/03/01 00:36:07;;;;;;;12.10;9.07;;;8.50;47.90;;;;;;5051783;28;20303;-39
2021/03/01 00:38:32;;;;;;;13.20;9.30;;;8.50;47.90;;;;;;5049371;28;20838;-39
2021/03/01 00:40:58;;;;;;;10.93;8.87;;;8.50;48.10;;;;;;5050779;28;20189;-39
2021/03/01 00:43:23;;;;;;;11.63;8.77;;;8.50;48.10;;;;;;5051402;28;20212;-39
2021/03/01 00:45:49;;;;;;;13.20;9.57;;;8.50;48.20;;;;;;5050901;28;20570;-40
2021/03/01 00:48:15;;;;;;;11.03;8.47;;;8.40;48.00;;;;;;5051136;28;20263;-39
2021/03/01 00:50:40;;;;;;;10.77;9.20;;;8.30;48.10;;;;;;5050507;28;20601;-39
2021/03/01 00:53:06;;;;;;;15.63;8.17;;;8.20;48.30;;;;;;5050803;28;20200;-39
2021/03/01 00:55:32;;;;;;;12.33;8.80;;;8.00;48.90;;;;;;5050610;28;21052;-40
2021/03/01 00:57:58;;;;;;;14.67;9.53;;;8.00;49.30;;;;;;5049933;28;20514;-39
2021/03/01 01:00:24;;;;;;;14.20;9.37;;;7.80;49.60;;;;;;5050322;28;20493;-39
2021/03/01 01:02:50;;;;;;;13.00;8.80;;;7.60;50.00;;;;;;5050775;28;20942;-39
2021/03/01 01:05:15;;;;;;;11.60;8.40;;;7.60;50.20;;;;;;5050572;28;20314;-39
2021/03/01 01:07:41;;;;;;;10.47;8.00;;;7.70;50.00;;;;;;5050800;28;20584;-39
2021/03/01 01:10:07;;;;;;;14.40;9.70;;;7.90;49.80;;;;;;5050067;28;20196;-39
2021/03/01 01:12:34;;;;;;;15.80;10.00;;;7.90;49.50;;;;;;5051170;28;20246;-39
2021/03/01 01:15:03;;;;;;;14.97;9.90;;;7.90;49.10;;;;;;5050217;28;20467;-39
2021/03/01 01:17:29;;;;;;;12.93;9.80;;;7.90;48.90;;;;;;5044656;28;20469;-40
2021/03/01 01:19:54;;;;;;;13.23;9.10;;;7.90;48.90;;;;;;5050221;28;20835;-39
2021/03/01 01:22:20;;;;;;;10.10;8.10;;;7.90;48.80;;;;;;5050644;28;20185;-39
2021/03/01 01:24:45;;;;;;;11.67;7.97;;;8.00;48.90;;;;;;5049777;28;20282;-39
2021/03/01 01:27:11;;;;;;;13.50;9.63;;;7.90;48.80;;;;;;5048493;28;20272;-39
2021/03/01 01:29:36;;;;;;;13.23;9.53;;;7.90;48.80;;;;;;5050589;28;20622;-40
2021/03/01 01:32:03;;;;;;;13.97;9.87;;;7.90;48.90;;;;;;5051247;28;20197;-39
2021/03/01 01:34:28;;;;;;;12.47;8.90;;;7.90;48.90;;;;;;5049546;28;20203;-39
2021/03/01 01:36:54;;;;;;;10.80;9.17;;;7.90;48.60;;;;;;5051321;28;20799;-39
2021/03/01 01:39:20;;;;;;;12.20;9.20;;;7.80;48.60;;;;;;5049224;28;20278;-40
2021/03/01 01:41:45;;;;;;;12.40;9.30;;;7.70;48.60;;;;;;5048911;28;20200;-39
2021/03/01 01:44:11;;;;;;;12.40;9.77;;;7.80;48.60;;;;;;5038161;28;20220;-39
2021/03/01 01:46:36;;;;;;;13.70;9.73;;;7.70;48.50;;;;;;5050526;28;20567;-39
2021/03/01 01:49:02;;;;;;;12.07;9.20;;;7.60;48.80;;;;;;5049152;28;20279;-39
2021/03/01 01:51:28;;;;;;;14.67;10.13;;;7.60;49.10;;;;;;5049942;28;20204;-39
2021/03/01 01:53:54;;;;;;;11.20;9.70;;;7.60;49.30;;;;;;5048252;28;20438;-39
2021/03/01 01:56:19;;;;;;;13.93;9.13;;;7.60;49.10;;;;;;5049898;28;20200;-39
2021/03/01 01:58:45;;;;;;;10.50;8.63;;;7.60;49.00;;;;;;5050255;28;20222;-39
2021/03/01 02:01:11;;;;;;;10.20;7.80;;;7.60;49.00;;;;;;5049613;28;20224;-39
2021/03/01 02:03:50;;;;;;;13.50;9.23;;;7.60;49.30;;;;;;5050185;28;20366;-39
2021/03/01 02:06:16;;;;;;;14.93;9.43;;;7.50;49.60;;;;;;5049214;28;20200;-39
2021/03/01 02:09:19;;;;;;;12.60;8.63;;;7.30;49.80;;;;;;5050604;28;20430;-39
2021/03/01 02:12:10;;;;;;;11.63;8.47;;;7.30;50.30;;;;;;5048892;28;20196;-40
2021/03/01 02:15:08;;;;;;;13.40;9.37;;;7.30;50.20;;;;;;5049490;28;21029;-39
2021/03/01 02:17:33;;;;;;;13.30;9.13;;;6.70;51.20;;;;;;5048605;28;20520;-39
2021/03/01 02:19:59;;;;;;;11.93;9.13;;;6.40;52.00;;;;;;5049683;28;20424;-39
2021/03/01 02:22:26;;;;;;;13.53;8.97;;;6.50;52.20;;;;;;5047992;28;20344;-39
2021/03/01 02:25:06;;;;;;;12.17;8.83;;;6.60;52.10;;;;;;5046753;28;20483;-39
2021/03/01 02:27:36;;;;;;;11.07;7.83;;;6.60;52.00;;;;;;5052287;28;20439;-39
2021/03/01 02:30:17;;;;;;;14.13;9.57;;;6.60;52.10;;;;;;5049366;28;20439;-40
2021/03/01 02:32:46;;;;;;;13.43;9.27;;;6.70;51.70;;;;;;5052427;28;20922;-39
2021/03/01 02:35:13;;;;;;;12.80;8.67;;;6.70;51.60;;;;;;5053618;28;20514;-39
2021/03/01 02:37:40;;;;;;;12.87;9.17;;;6.70;51.50;;;;;;5054293;28;20427;-40
2021/03/01 02:40:08;;;;;;;12.60;9.03;;;6.70;51.20;;;;;;5052996;28;20430;-39
2021/03/01 02:42:35;;;;;;;11.77;8.53;;;6.80;51.40;;;;;;5053376;28;20433;-39
2021/03/01 02:45:03;;;;;;;11.93;9.00;;;6.80;51.00;;;;;;5053569;28;20561;-39
2021/03/01 02:47:29;;;;;;;14.13;9.70;;;6.90;50.90;;;;;;5053642;28;20431;-39
2021/03/01 02:49:57;;;;;;;14.43;9.00;;;6.90;50.70;;;;;;5051263;28;20434;-39
2021/03/01 02:52:24;;;;;;;14.03;9.40;;;6.70;51.00;;;;;;5053336;28;20521;-39
2021/03/01 02:54:51;;;;;;;12.90;8.40;;;6.60;51.30;;;;;;5053510;28;20435;-39
2021/03/01 02:57:18;;;;;;;13.80;8.77;;;6.50;51.50;;;;;;5053667;28;21233;-39
2021/03/01 02:59:45;;;;;;;11.47;8.90;;;6.60;51.50;;;;;;5052965;28;20473;-39
2021/03/01 03:02:12;;;;;;;12.50;8.93;;;6.70;51.30;;;;;;5054519;28;20423;-40
2021/03/01 03:04:39;;;;;;;13.43;9.50;;;6.60;51.60;;;;;;5052718;28;20556;-39
2021/03/01 03:07:06;;;;;;;11.97;9.50;;;6.60;51.70;;;;;;5053191;28;20467;-39
2021/03/01 03:09:32;;;;;;;15.37;9.20;;;6.60;51.60;;;;;;5052292;28;20446;-39
2021/03/01 03:12:00;;;;;;;12.27;8.43;;;6.50;51.70;;;;;;5053716;28;20442;-39
2021/03/01 03:14:27;;;;;;;11.10;8.40;;;6.30;52.20;;;;;;5052197;28;20192;-39
2021/03/01 03:16:56;;;;;;;13.10;9.20;;;6.30;52.40;;;;;;5050500;28;20575;-39
2021/03/01 03:19:23;;;;;;;12.60;8.60;;;6.10;53.00;;;;;;5054396;28;20537;-39
2021/03/01 03:21:48;;;;;;;13.03;9.40;;;6.00;53.30;;;;;;5053231;28;20500;-39
2021/03/01 03:24:14;;;;;;;11.00;8.70;;;6.10;53.00;;;;;;5051646;28;20827;-39
2021/03/01 03:26:40;;;;;;;15.50;9.10;;;6.20;52.80;;;;;;5053292;28;20644;-40
2021/03/01 03:29:06;;;;;;;12.33;9.40;;;6.30;52.50;;;;;;5051939;28;20193;-39
2021/03/01 03:31:31;;;;;;;12.20;8.97;;;6.20;52.30;;;;;;5053054;28;20205;-39
2021/03/01 03:33:57;;;;;;;13.83;9.57;;;6.20;52.70;;;;;;5052819;28;20280;-39
2021/03/01 03:36:29;;;;;;;14.17;9.67;;;6.20;52.70;;;;;;5060242;28;20239;-39
2021/03/01 03:39:01;;;;;;;12.93;7.90;;;6.00;52.70;;;;;;5051733;28;20435;-39
2021/03/01 03:41:29;;;;;;;11.20;9.23;;;6.10;53.10;;;;;;5052778;28;20480;-39
2021/03/01 03:43:56;;;;;;;12.20;8.70;;;6.10;52.80;;;;;;5051619;28;20478;-39
2021/03/01 03:46:25;;;;;;;11.23;8.73;;;6.20;52.50;;;;;;5051174;28;20907;-39
2021/03/01 03:48:52;;;;;;;11.43;8.03;;;6.30;52.20;;;;;;5053097;28;20530;-39
2021/03/01 03:51:19;;;;;;;13.30;9.07;;;6.30;52.10;;;;;;5052096;28;20438;-39
2021/03/01 03:53:51;;;;;;;11.00;8.93;;;6.30;52.60;;;;;;5053685;28;20457;-39
2021/03/01 03:56:22;;;;;;;9.40;8.00;;;6.30;52.00;;;;;;5051570;28;20465;-39
2021/03/01 03:58:51;;;;;;;11.20;7.90;;;6.20;52.10;;;;;;5051726;28;20451;-39
2021/03/01 04:01:22;;;;;;;11.80;9.40;;;6.20;52.00;;;;;;5051684;28;20875;-39
2021/03/01 04:03:48;;;;;;;14.60;9.63;;;6.10;52.20;;;;;;5051499;28;22212;-39
2021/03/01 04:06:17;;;;;;;11.47;8.30;;;5.90;52.40;;;;;;5052114;28;20435;-39
2021/03/01 04:08:46;;;;;;;11.63;8.40;;;6.00;52.60;;;;;;5052046;28;20793;-39
2021/03/01 04:11:13;;;;;;;13.40;9.00;;;6.10;52.30;;;;;;5059885;28;20478;-39
2021/03/01 04:13:43;;;;;;;12.53;8.63;;;6.00;52.10;;;;;;5050972;28;20431;-39
2021/03/01 04:16:10;;;;;;;10.40;8.70;;;6.00;52.20;;;;;;5051553;28;20470;-39
2021/03/01 04:18:38;;;;;;;13.03;9.43;;;5.90;52.40;;;;;;5041426;28;20439;-39
2021/03/01 04:21:07;;;;;;;11.20;8.50;;;5.80;52.70;;;;;;5051364;28;20443;-39
2021/03/01 04:23:34;;;;;;;12.17;8.73;;;5.90;52.60;;;;;;5052092;28;20474;-39
2021/03/01 04:26:01;;;;;;;13.93;8.93;;;6.00;52.20;;;;;;5051621;28;20446;-39
2021/03/01 04:28:27;;;;;;;10.90;8.67;;;6.10;51.80;;;;;;5051197;28;20443;-39
2021/03/01 04:30:56;;;;;;;12.40;8.80;;;6.20;51.60;;;;;;5051936;28;20427;-39
2021/03/01 04:33:22;;;;;;;14.80;8.27;;;6.20;51.40;;;;;;5052275;28;20435;-39
2021/03/01 04:35:50;;;;;;;14.57;9.23;;;6.10;51.50;;;;;;5051405;28;20443;-39
2021/03/01 04:38:16;;;;;;;13.33;9.40;;;6.10;51.50;;;;;;5050742;28;20453;-39
2021/03/01 04:40:42;;;;;;;12.67;8.40;;;6.00;51.90;;;;;;5049026;28;20466;-39
2021/03/01 04:43:11;;;;;;;10.97;8.40;;;5.60;52.40;;;;;;5055646;28;20196;-39
2021/03/01 04:45:39;;;;;;;14.03;9.30;;;5.30;53.50;;;;;;5049019;28;20945;-40
2021/03/01 04:48:07;;;;;;;11.00;8.40;;;5.20;53.80;;;;;;5050588;28;20468;-39
2021/03/01 04:50:33;;;;;;;14.20;7.70;;;5.10;54.20;;;;;;5050534;28;20442;-39
2021/03/01 04:52:59;;;;;;;15.00;9.13;;;5.20;54.10;;;;;;5049812;28;20966;-40
2021/03/01 04:55:26;;;;;;;12.37;9.43;;;5.30;54.00;;;;;;5050699;28;20427;-40
2021/03/01 04:57:53;;;;;;;13.70;8.73;;;5.40;53.60;;;;;;5051376;28;20290;-39
2021/03/01 05:00:19;;;;;;;11.80;7.90;;;5.40;53.40;;;;;;5050540;28;20546;-39
2021/03/01 05:02:45;;;;;;;10.90;7.80;;;5.50;53.30;;;;;;5051728;28;20435;-39
2021/03/01 05:05:11;;;;;;;12.43;8.60;;;5.30;53.60;;;;;;5049829;28;20997;-39
2021/03/01 05:07:37;;;;;;;11.50;8.37;;;5.30;53.80;;;;;;5051219;28;20524;-39
2021/03/01 05:10:06;;;;;;;12.90;8.93;;;5.20;53.80;;;;;;5048495;28;20455;-39
2021/03/01 05:12:32;;;;;;;12.43;8.50;;;5.20;53.80;;;;;;5051577;28;20473;-39
2021/03/01 05:14:58;;;;;;;11.77;8.60;;;5.10;54.20;;;;;;5051096;28;20439;-39
2021/03/01 05:17:23;;;;;;;12.37;8.80;;;5.20;54.20;;;;;;5052871;28;20223;-39
2021/03/01 05:19:49;;;;;;;12.37;8.90;;;5.20;54.00;;;;;;5049891;28;20191;-39
2021/03/01 05:22:14;;;;;;;14.37;9.40;;;5.20;53.90;;;;;;5051047;28;20212;-39
2021/03/01 05:24:40;;;;;;;16.63;10.40;;;5.10;53.80;;;;;;5050577;28;20242;-39
2021/03/01 05:27:06;;;;;;;13.90;10.30;;;5.10;54.10;;;;;;5049781;28;20250;-39
2021/03/01 05:29:33;;;;;;;15.20;9.67;;;5.10;54.20;;;;;;5050487;28;20211;-39
2021/03/01 05:31:58;;;;;;;12.70;8.50;;;5.10;54.30;;;;;;5050825;28;20910;-39
2021/03/01 05:34:24;;;;;;;14.40;8.50;;;5.10;54.30;;;;;;5051677;28;20486;-39
2021/03/01 05:36:49;;;;;;;13.60;9.03;;;5.10;54.30;;;;;;5049430;28;20189;-39
2021/03/01 05:39:15;;;;;;;12.53;8.87;;;5.10;54.10;;;;;;5049606;28;20199;-40
2021/03/01 05:41:46;;;;;;;13.80;8.80;;;4.80;54.70;;;;;;5050977;28;20713;-39
2021/03/01 05:44:12;;;;;;;10.60;7.97;;;4.80;55.10;;;;;;5050246;28;20215;-39
2021/03/01 05:46:41;;;;;;;17.40;9.60;;;4.90;54.90;;;;;;5050902;28;20435;-39
2021/03/01 05:49:07;;;;;;;13.33;9.30;;;5.00;54.50;;;;;;5049280;28;20439;-39
2021/03/01 05:51:36;;;;;;;15.97;9.40;;;5.00;54.20;;;;;;5059200;28;21000;-39
2021/03/01 05:54:03;;;;;;;20.53;9.00;;;5.10;54.20;;;;;;5049886;28;20533;-39
2021/03/01 05:56:29;;;;;;;12.47;8.80;;;5.20;53.80;;;;;;5049505;28;20565;-39
2021/03/01 05:58:55;;;;;;;14.67;9.10;;;5.40;53.50;;;;;;5047552;28;20485;-40
2021/03/01 06:01:24;;;;;;;12.40;9.37;;;5.50;53.30;;;;;;5045545;28;20566;-39
2021/03/01 06:03:50;;;;;;;15.00;9.10;;;5.50;53.00;;;;;;5048537;28;21059;-39
2021/03/01 06:06:15;;;;;;;12.23;8.33;;;5.60;52.70;;;;;;5049815;28;20458;-39
2021/03/01 06:08:41;;;;;;;15.43;10.00;;;5.60;52.30;;;;;;5054441;28;20438;-39
2021/03/01 06:11:08;;;;;;;14.63;9.23;;;5.60;52.30;;;;;;5049141;28;20199;-39
2021/03/01 06:13:35;;;;;;;13.60;9.67;;;5.50;52.60;;;;;;5050397;28;20224;-40
2021/03/01 06:16:02;;;;;;;10.97;8.77;;;5.40;52.90;;;;;;5049926;28;20542;-39
2021/03/01 06:18:28;;;;;;;12.13;7.60;;;5.30;53.00;;;;;;5048285;28;20462;-40
2021/03/01 06:21:16;;;;;;;15.20;9.87;;;5.40;54.20;;;;;;5048729;28;20435;-40
2021/03/01 06:23:44;;;;;;;12.67;9.37;;;5.90;58.20;;;;;;5050127;28;20841;-40
2021/03/01 06:26:32;;;;;;;13.80;9.13;;;6.50;57.60;;;;;;5054537;28;20426;-40
2021/03/01 06:29:04;;;;;;;13.73;8.97;;;6.90;54.10;;;;;;5047829;28;20464;-40
2021/03/01 06:31:42;;;;;;;15.23;9.97;;;7.00;52.50;;;;;;5048013;28;20435;-40
2021/03/01 06:34:25;;;;;;;14.97;9.70;;;7.30;53.10;;;;;;5048250;28;21245;-40
2021/03/01 06:37:05;;;;;;;12.07;9.37;;;7.60;53.10;;;;;;5048994;28;20533;-40
2021/03/01 06:39:31;;;;;;;12.30;9.10;;;8.00;52.30;;;;;;5048123;28;20477;-40
2021/03/01 06:41:57;;;;;;;11.93;8.40;;;8.20;50.90;;;;;;5047757;28;21209;-40
2021/03/01 06:44:23;;;;;;;13.07;8.93;;;8.40;49.80;;;;;;5048877;28;20196;-40
2021/03/01 06:46:53;;;;;;;12.57;9.00;;;8.50;49.00;;;;;;5049069;28;20446;-40
2021/03/01 06:49:20;;;;;;;13.17;9.93;;;8.70;48.70;;;;;;5048275;28;20930;-40
2021/03/01 06:51:47;;;;;;;10.07;8.70;;;8.90;48.50;;;;;;5049198;28;20583;-40
2021/03/01 06:54:24;;;;;;;10.67;8.60;;;9.10;47.80;;;;;;5049222;28;20517;-40
2021/03/01 06:56:49;;;;;;;20.23;9.57;;;9.40;46.70;;;;;;5049052;28;20487;-40
2021/03/01 06:59:18;;;;;;;10.90;8.50;;;9.60;46.40;;;;;;5047629;28;21002;-40
2021/03/01 07:02:09;;;;;;;12.30;9.37;;;9.80;45.90;;;;;;5048931;28;20682;-40
2021/03/01 07:04:35;;;;;;;10.80;8.97;;;9.90;45.10;;;;;;5045005;28;20513;-40
2021/03/01 07:07:02;;;;;;;12.37;9.37;;;10.10;44.00;;;;;;5049936;28;20459;-40
2021/03/01 07:09:37;;;;;;;13.57;8.80;;;10.30;43.50;;;;;;5048827;28;20258;-40
2021/03/01 07:12:03;;;;;;;11.97;10.00;;;10.40;42.80;;;;;;5049425;28;21028;-40
2021/03/01 07:14:28;;;;;;;10.83;8.70;;;10.50;42.80;;;;;;5049320;28;20552;-40
2021/03/01 07:16:56;;;;;;;15.80;8.97;;;10.40;42.00;;;;;;5049105;28;20914;-40
2021/03/01 07:19:33;;;;;;;14.97;10.60;;;10.40;42.70;;;;;;5051391;28;20224;-40
2021/03/01 07:22:07;;;;;;;13.77;11.63;;;10.10;42.70;;;;;;5052474;28;20924;-40
2021/03/01 07:24:33;;;;;;;13.97;10.70;;;10.40;43.10;;;;;;5048734;28;20454;-40
2021/03/01 07:27:04;;;;;;;17.50;11.93;;;10.60;42.40;;;;;;5045045;28;20470;-40
2021/03/01 07:29:31;;;;;;;15.93;11.33;;;10.60;42.00;;;;;;5045178;28;20535;-40
2021/03/01 07:32:04;;;;;;;17.33;12.40;;;10.40;42.20;;;;;;5044467;28;20906;-40
2021/03/01 07:34:35;;;;;;;13.63;9.83;;;10.40;42.60;;;;;;5046207;28;20482;-40
2021/03/01 07:37:03;;;;;;;14.80;9.90;;;10.50;42.80;;;;;;5051889;28;20439;-40
2021/03/01 07:39:29;;;;;;;13.60;10.00;;;10.20;42.70;;;;;;5051159;28;20435;-40
2021/03/01 07:41:56;;;;;;;11.37;10.10;;;10.10;43.20;;;;;;5049086;28;20514;-40
2021/03/01 07:44:24;;;;;;;12.00;9.67;;;10.10;43.50;;;;;;5050441;28;20526;-40
2021/03/01 07:46:50;;;;;;;16.10;11.13;;;10.20;43.80;;;;;;5050684;28;20428;-40
2021/03/01 07:49:48;;;;;;;13.80;10.67;;;10.30;43.80;;;;;;5049400;28;20775;-40
2021/03/01 07:52:19;;;;;;;13.10;10.07;;;10.50;43.40;;;;;;5052857;28;20447;-40
2021/03/01 07:54:55;;;;;;;13.30;10.57;;;10.70;43.10;;;;;;5051968;28;20490;-40
2021/03/01 07:57:23;;;;;;;11.90;9.97;;;10.70;42.90;;;;;;5049125;28;21199;-40
2021/03/01 07:59:48;;;;;;;14.33;11.23;;;10.80;42.80;;;;;;5051585;28;20854;-40
2021/03/01 08:02:25;;;;;;;17.70;10.90;;;11.00;42.80;;;;;;5052735;28;20432;-40
2021/03/01 08:04:52;;;;;;;11.60;10.40;;;11.10;42.60;;;;;;5052550;28;20237;-40
2021/03/01 08:07:36;;;;;;;13.57;11.10;;;11.20;42.40;;;;;;5051641;28;20435;-40
2021/03/01 08:10:03;;;;;;;16.83;12.03;;;11.30;42.30;;;;;;5048060;28;20444;-40
2021/03/01 08:12:29;;;;;;;17.77;14.30;;;11.20;42.50;;;;;;5052644;28;20451;-39
2021/03/01 08:15:04;;;;;;;12.40;10.80;;;11.20;42.80;;;;;;5052032;28;20510;-40
2021/03/01 08:17:35;;;;;;;19.83;11.20;;;11.10;42.80;;;;;;5034320;28;20198;-40
2021/03/01 08:20:14;;;;;;;14.27;11.80;;;11.10;43.10;;;;;;5051448;28;20441;-40
2021/03/01 08:23:06;;;;;;;14.73;11.13;;;11.10;43.40;;;;;;5051500;28;20524;-40
2021/03/01 08:25:44;;;;;;;16.70;11.50;;;11.20;43.20;;;;;;5038689;28;21251;-40
2021/03/01 08:28:21;;;;;;;12.33;10.60;;;10.90;43.50;;;;;;5052139;28;20472;-40
2021/03/01 08:30:54;;;;;;;13.73;10.93;;;10.90;44.30;;;;;;5051171;28;20462;-40
2021/03/01 08:33:24;;;;;;;14.13;10.83;;;11.00;44.50;;;;;;5052370;28;20415;-40
2021/03/01 08:35:52;;;;;;;16.33;11.50;;;10.70;45.30;;;;;;5051187;28;20439;-40
2021/03/01 08:38:41;;;;;;;14.27;10.50;;;10.80;46.00;;;;;;5051722;28;20439;-40
2021/03/01 08:41:08;;;;;;;12.37;9.93;;;11.10;45.90;;;;;;5037927;28;20435;-40
2021/03/01 08:43:36;;;;;;;15.50;11.37;;;11.20;45.60;;;;;;5049611;28;20439;-39
2021/03/01 08:46:05;;;;;;;15.83;10.77;;;11.40;45.00;;;;;;5050061;28;20486;-39
2021/03/01 08:48:31;;;;;;;16.20;10.70;;;11.40;44.70;;;;;;5032363;28;20451;-38
2021/03/01 08:50:57;;;;;;;11.67;10.47;;;11.40;44.60;;;;;;5047114;28;20443;-39
2021/03/01 08:53:25;;;;;;;13.60;10.60;;;11.50;44.90;;;;;;5051924;28;20291;-38
2021/03/01 08:55:52;;;;;;;12.60;10.77;;;11.40;44.70;;;;;;5050623;28;20926;-38
2021/03/01 08:58:19;;;;;;;15.53;11.87;;;11.60;44.80;;;;;;5049936;28;20497;-38
2021/03/01 09:00:51;;;;;;;15.60;11.53;;;11.70;44.10;;;;;;5050643;28;20506;-38
2021/03/01 09:03:28;;;;;;;15.33;11.53;;;11.80;44.10;;;;;;5050020;28;20447;-38
2021/03/01 09:06:02;;;;;;;15.23;11.20;;;11.90;43.80;;;;;;5050412;28;20925;-39
2021/03/01 09:08:33;;;;;;;18.03;12.20;;;11.90;44.10;;;;;;5050206;28;20446;-39
2021/03/01 09:11:01;;;;;;;13.47;10.53;;;12.00;44.70;;;;;;5050866;28;20443;-38
2021/03/01 09:13:27;;;;;;;13.10;10.73;;;12.10;44.80;;;;;;5049852;28;20457;-39
2021/03/01 09:15:53;;;;;;;14.10;10.63;;;12.30;44.80;;;;;;5047175;28;20443;-39
2021/03/01 09:18:19;;;;;;;16.57;11.60;;;12.40;44.80;;;;;;5044990;28;20895;-39
2021/03/01 09:20:57;;;;;;;13.63;10.47;;;12.40;44.30;;;;;;5049119;28;20500;-39
2021/03/01 09:23:50;;;;;;;14.30;10.90;;;12.70;43.90;;;;;;5049475;28;20491;-39
2021/03/01 09:26:27;;;;;;;14.70;11.43;;;12.90;43.50;;;;;;5049860;28;20439;-39
2021/03/01 09:28:56;;;;;;;14.17;10.60;;;13.00;43.20;;;;;;5050182;28;20450;-39
2021/03/01 09:31:21;;;;;;;13.73;11.53;;;13.20;42.60;;;;;;5048779;28;20534;-39
2021/03/01 09:33:49;;;;;;;17.43;12.57;;;13.30;42.20;;;;;;5034203;28;20917;-39
2021/03/01 09:36:15;;;;;;;13.60;11.57;;;13.40;42.00;;;;;;5040783;28;20684;-39
2021/03/01 09:38:42;;;;;;;15.00;11.50;;;13.60;41.90;;;;;;5050057;28;20443;-39
2021/03/01 09:41:10;;;;;;;12.53;10.30;;;13.70;41.50;;;;;;5048610;28;20197;-39
2021/03/01 09:43:37;;;;;;;12.80;10.00;;;13.80;41.20;;;;;;5049743;28;20981;-39
2021/03/01 09:46:04;;;;;;;13.43;11.20;;;14.00;41.30;;;;;;5049481;28;21022;-39
2021/03/01 09:48:49;;;;;;;13.90;10.60;;;14.20;41.10;;;;;;5047984;28;20475;-40
2021/03/01 09:51:16;;;;;;;11.00;9.90;;;14.40;40.30;;;;;;5043303;28;20496;-40
2021/03/01 09:53:41;;;;;;;13.13;10.43;;;14.60;40.20;;;;;;5048171;28;20880;-40
2021/03/01 09:56:07;;;;;;;10.80;9.67;;;14.70;40.10;;;;;;5048754;28;20435;-40
2021/03/01 09:58:40;;;;;;;14.60;11.03;;;14.80;39.80;;;;;;5049375;28;20204;-40
2021/03/01 10:01:06;;;;;;;9.70;8.67;;;15.00;40.10;;;;;;5049473;28;20228;-39
2021/03/01 10:03:45;;;;;;;14.50;9.23;;;15.20;39.60;;;;;;5044220;28;20446;-40
2021/03/01 10:06:12;;;;;;;10.40;9.07;;;15.50;38.80;;;;;;5038256;28;20507;-39
2021/03/01 10:08:39;;;;;;;10.93;9.70;;;15.80;38.70;;;;;;5046896;28;20952;-40
2021/03/01 10:11:22;;;;;;;10.70;9.27;;;16.10;38.20;;;;;;5037938;28;20442;-40
2021/03/01 10:13:48;;;;;;;12.50;9.83;;;16.20;36.50;;;;;;5041549;28;20557;-40
2021/03/01 10:16:28;;;;;;;12.90;9.80;;;16.30;36.40;;;;;;5041314;28;20485;-40
2021/03/01 10:18:53;;;;;;;15.10;9.33;;;16.20;36.60;;;;;;5042251;28;20817;-40
2021/03/01 10:21:33;;;;;;;11.80;10.43;;;16.20;36.70;;;;;;5037371;28;20427;-40
2021/03/01 10:24:04;;;;;;;8.93;8.00;;;16.60;36.30;;;;;;5039539;28;20212;-40
2021/03/01 10:29:05;;;;;;;10.90;8.00;;;16.90;32.80;;;;;;4518622;22;20505;-39
2021/03/01 10:31:35;;;;;;;8.50;7.60;;;17.00;32.70;;;;;;5064648;28;20446;-40
2021/03/01 10:34:11;;;;;;;7.10;6.23;;;16.80;32.00;;;;;;5067328;28;20227;-40
2021/03/01 10:36:40;;;;;;;7.53;6.83;;;16.60;31.80;;;;;;5067171;28;20870;-40
2021/03/01 10:39:16;;;;;;;8.00;6.57;;;16.70;31.40;;;;;;5064110;28;20438;-41
2021/03/01 10:41:56;;;;;;;7.13;6.33;;;16.20;32.30;;;;;;5066616;28;20561;-41
2021/03/01 10:44:31;;;;;;;7.07;6.07;;;16.30;32.60;;;;;;5069148;28;20440;-40
2021/03/01 10:46:57;;;;;;;6.60;5.90;;;16.50;31.50;;;;;;5055592;28;20539;-40
2021/03/01 10:49:27;;;;;;;7.00;6.13;;;17.00;31.40;;;;;;5066388;28;21031;-40
2021/03/01 10:51:54;;;;;;;6.60;5.90;;;17.10;30.40;;;;;;5059729;28;20196;-40
2021/03/01 10:54:21;;;;;;;7.00;6.30;;;17.10;30.60;;;;;;5070384;28;20497;-40
2021/03/01 10:56:47;;;;;;;18.30;6.23;;;17.30;30.40;;;;;;5072247;28;20885;-40
2021/03/01 10:59:13;;;;;;;7.30;6.17;;;17.80;30.30;;;;;;5071709;28;20461;-40
2021/03/01 11:01:40;;;;;;;6.70;6.03;;;18.30;30.40;;;;;;5073208;28;20184;-40
2021/03/01 11:04:07;;;;;;;7.23;6.27;;;18.40;29.00;;;;;;5072506;28;20325;-40
2021/03/01 11:06:33;;;;;;;8.40;5.83;;;18.10;29.00;;;;;;5073231;28;20520;-40
2021/03/01 11:09:04;;;;;;;8.33;6.73;;;18.50;29.20;;;;;;5072708;28;20446;-40
2021/03/01 11:11:30;;;;;;;7.23;5.97;;;18.90;29.00;;;;;;5072350;28;20219;-40
2021/03/01 11:13:56;;;;;;;5.37;4.87;;;18.70;27.80;;;;;;5072994;28;20497;-40
2021/03/01 11:16:21;;;;;;;6.27;5.67;;;18.80;27.60;;;;;;5072128;28;20279;-40
2021/03/01 11:18:47;;;;;;;6.13;5.53;;;19.10;27.20;;;;;;5072885;28;20223;-40
2021/03/01 11:21:13;;;;;;;6.20;5.60;;;19.30;27.20;;;;;;5070589;28;20563;-40
2021/03/01 11:23:39;;;;;;;5.80;5.00;;;19.20;26.20;;;;;;5073131;28;20196;-40
2021/03/01 11:26:05;;;;;;;6.90;6.07;;;19.30;26.90;;;;;;5072440;28;20438;-40
2021/03/01 11:28:31;;;;;;;5.93;5.33;;;19.60;26.30;;;;;;5070243;28;20437;-40
2021/03/01 11:30:57;;;;;;;6.07;5.50;;;19.60;26.50;;;;;;5065988;28;20231;-40
2021/03/01 11:33:23;;;;;;;11.93;5.93;;;19.70;26.00;;;;;;5066628;28;20195;-40
2021/03/01 11:35:51;;;;;;;5.50;4.97;;;19.00;25.60;;;;;;5066733;28;20218;-40
2021/03/01 11:38:17;;;;;;;6.17;5.03;;;19.00;27.10;;;;;;5067551;28;20188;-40
2021/03/01 11:40:43;;;;;;;5.33;4.83;;;19.40;27.40;;;;;;5067355;28;20430;-40
2021/03/01 11:43:09;;;;;;;7.43;5.77;;;19.70;26.30;;;;;;5067967;28;20441;-40
2021/03/01 11:45:34;;;;;;;6.53;5.53;;;19.70;25.60;;;;;;5068657;28;20188;-40
2021/03/01 11:48:00;;;;;;;5.93;4.70;;;19.90;26.20;;;;;;5071280;28;20188;-40
2021/03/01 11:50:27;;;;;;;6.70;4.97;;;20.00;25.60;;;;;;5058716;28;20192;-40
2021/03/01 11:52:53;;;;;;;4.80;4.20;;;20.30;25.70;;;;;;5068791;28;20196;-40
2021/03/01 11:55:19;;;;;;;5.83;4.37;;;20.40;25.20;;;;;;5065405;28;20496;-41
2021/03/01 11:57:44;;;;;;;4.93;4.10;;;20.20;25.10;;;;;;5068027;28;20207;-40
2021/03/01 12:00:10;;;;;;;4.43;3.90;;;20.20;24.90;;;;;;5066346;28;20197;-40
2021/03/01 12:02:36;;;;;;;4.60;4.10;;;20.00;25.20;;;;;;5059783;28;20523;-41
2021/03/01 12:05:02;;;;;;;4.60;3.93;;;20.30;24.80;;;;;;5068903;28;20434;-40
2021/03/01 12:07:28;;;;;;;5.10;3.50;;;20.30;25.20;;;;;;5060650;28;20196;-40
2021/03/01 12:09:54;;;;;;;4.00;3.60;;;20.60;24.70;;;;;;5067956;28;21004;-40
2021/03/01 12:12:19;;;;;;;4.30;3.90;;;20.80;24.20;;;;;;5063121;28;20196;-40
2021/03/01 12:14:45;;;;;;;5.10;4.10;;;20.80;23.50;;;;;;5064862;28;20648;-40
2021/03/01 12:17:11;;;;;;;5.97;3.63;;;20.20;23.80;;;;;;5064845;28;20590;-40
2021/03/01 12:19:39;;;;;;;3.30;3.10;;;20.20;25.00;;;;;;5060553;28;20266;-40
2021/03/01 12:22:05;;;;;;;5.03;3.80;;;20.20;25.60;;;;;;5065577;28;20776;-42
2021/03/01 12:24:30;;;;;;;7.27;3.20;;;20.30;24.40;;;;;;5067037;28;21143;-40
2021/03/01 12:26:56;;;;;;;4.80;3.90;;;19.90;24.40;;;;;;5063513;28;20438;-40
2021/03/01 12:29:22;;;;;;;4.20;3.80;;;19.60;24.80;;;;;;5062061;28;20239;-40
2021/03/01 12:31:47;;;;;;;4.77;4.10;;;19.50;25.30;;;;;;5065353;28;20656;-40
2021/03/01 12:34:13;;;;;;;3.37;3.07;;;19.90;25.00;;;;;;5066545;28;20250;-40
2021/03/01 12:36:38;;;;;;;3.37;3.07;;;19.90;24.60;;;;;;5060961;28;20734;-40
2021/03/01 12:39:04;;;;;;;4.17;3.57;;;20.10;26.60;;;;;;5069628;28;20184;-40
2021/03/01 12:41:30;;;;;;;3.70;3.40;;;20.40;25.60;;;;;;5071687;28;20249;-40
2021/03/01 12:43:56;;;;;;;3.83;3.10;;;20.40;25.40;;;;;;5047066;28;20430;-42
2021/03/01 12:46:22;;;;;;;5.30;3.77;;;20.80;27.40;;;;;;5046785;28;20202;-40
2021/03/01 12:48:49;;;;;;;4.17;3.43;;;21.50;24.20;;;;;;5066900;28;20241;-39
2021/03/01 12:51:15;;;;;;;4.30;3.90;;;21.30;23.60;;;;;;5069054;28;20464;-40
2021/03/01 12:53:41;;;;;;;3.83;3.43;;;20.90;23.20;;;;;;5070753;28;20532;-41